createdAt,value
2017-12-25T00:00:28.641Z,9.20
2017-12-25T00:02:54.957Z,9.10
2017-12-25T00:05:21.288Z,9.10
2017-12-25T00:07:47.549Z,9.10
2017-12-25T00:10:13.777Z,9.10
2017-12-25T00:12:40.079Z,9.10
2017-12-25T00:15:06.319Z,9.20
2017-12-25T00:17:32.562Z,9.10
2017-12-25T00:19:58.815Z,9.10
2017-12-25T00:22:25.087Z,9.10
2017-12-25T00:24:51.345Z,9.10
2017-12-25T00:27:18.743Z,9.10
2017-12-25T00:29:45.262Z,9.10
2017-12-25T00:32:11.620Z,9.20
2017-12-25T00:34:38.670Z,9.10
2017-12-25T00:37:05.646Z,9.10
2017-12-25T00:39:31.909Z,9.10
2017-12-25T00:41:58.247Z,9.10
2017-12-25T00:44:24.583Z,9.20
2017-12-25T00:46:50.895Z,9.20
2017-12-25T00:49:17.214Z,9.20
2017-12-25T00:51:43.452Z,9.20
2017-12-25T00:54:09.724Z,9.10
2017-12-25T00:56:36.719Z,9.10
2017-12-25T00:59:02.951Z,9.10
2017-12-25T01:01:29.235Z,9.10
2017-12-25T01:03:56.243Z,9.10
2017-12-25T01:06:22.498Z,9.10
2017-12-25T01:08:49.555Z,9.10
2017-12-25T01:11:15.835Z,9.10
2017-12-25T01:13:42.115Z,9.10
2017-12-25T01:16:08.404Z,9.00
2017-12-25T01:18:34.657Z,9.10
2017-12-25T01:21:01.972Z,9.00
2017-12-25T01:23:28.256Z,9.00
2017-12-25T01:25:54.485Z,8.90
2017-12-25T01:28:20.784Z,8.90
2017-12-25T01:30:47.048Z,8.90
2017-12-25T01:33:13.304Z,8.80
2017-12-25T01:35:39.574Z,8.80
2017-12-25T01:38:05.790Z,8.80
2017-12-25T01:40:32.048Z,8.80
2017-12-25T01:42:58.286Z,8.70
2017-12-25T01:45:24.676Z,8.70
2017-12-25T01:47:50.884Z,8.70
2017-12-25T01:50:17.138Z,8.60
2017-12-25T01:52:43.408Z,8.60
2017-12-25T01:55:09.741Z,8.50
2017-12-25T01:57:36.000Z,8.50
2017-12-25T02:00:03.190Z,8.40
2017-12-25T02:02:29.452Z,8.30
2017-12-25T02:05:08.637Z,8.30
2017-12-25T02:07:53.795Z,8.20
2017-12-25T02:10:20.096Z,8.20
2017-12-25T02:12:47.112Z,8.20
2017-12-25T02:15:13.396Z,8.20
2017-12-25T02:17:39.674Z,8.20
2017-12-25T02:20:05.932Z,8.10
2017-12-25T02:22:32.972Z,8.10
2017-12-25T02:24:59.208Z,8.10
2017-12-25T02:27:26.205Z,8.00
2017-12-25T02:29:52.430Z,8.00
2017-12-25T02:32:18.676Z,7.90
2017-12-25T02:34:44.954Z,7.90
2017-12-25T02:37:11.929Z,8.00
2017-12-25T02:39:38.205Z,8.00
2017-12-25T02:42:04.486Z,8.00
2017-12-25T02:44:30.735Z,8.00
2017-12-25T02:46:57.017Z,8.00
2017-12-25T02:49:24.017Z,8.10
2017-12-25T02:51:50.251Z,8.10
2017-12-25T02:54:16.501Z,8.20
2017-12-25T02:56:42.766Z,8.30
2017-12-25T02:59:09.038Z,8.30
2017-12-25T03:01:35.315Z,8.30
2017-12-25T03:04:02.307Z,8.40
2017-12-25T03:06:28.531Z,8.40
2017-12-25T03:08:54.794Z,8.40
2017-12-25T03:11:21.036Z,8.50
2017-12-25T03:13:47.991Z,8.50
2017-12-25T03:16:15.000Z,8.50
2017-12-25T03:18:41.259Z,8.50
2017-12-25T03:21:08.234Z,8.60
2017-12-25T03:23:34.524Z,8.50
2017-12-25T03:26:00.782Z,8.50
2017-12-25T03:28:27.800Z,8.60
2017-12-25T03:30:54.103Z,8.60
2017-12-25T03:33:20.360Z,8.50
2017-12-25T03:35:46.706Z,8.50
2017-12-25T03:38:13.681Z,8.50
2017-12-25T03:40:39.942Z,8.50
2017-12-25T03:43:06.181Z,8.50
2017-12-25T03:45:32.454Z,8.50
2017-12-25T03:47:59.433Z,8.40
2017-12-25T03:50:25.683Z,8.40
2017-12-25T03:52:51.971Z,8.40
2017-12-25T03:55:18.197Z,8.50
2017-12-25T03:57:44.494Z,8.50
2017-12-25T04:00:10.736Z,8.50
2017-12-25T04:02:44.861Z,8.40
2017-12-25T04:05:11.857Z,8.50
2017-12-25T04:07:38.951Z,8.50
2017-12-25T04:10:05.947Z,8.50
2017-12-25T04:12:32.183Z,8.50
2017-12-25T04:14:58.413Z,8.50
2017-12-25T04:17:24.671Z,8.50
2017-12-25T04:19:50.902Z,8.40
2017-12-25T04:22:17.136Z,8.50
2017-12-25T04:24:44.177Z,8.50
2017-12-25T04:27:10.428Z,8.50
2017-12-25T04:29:37.493Z,8.50
2017-12-25T04:32:03.742Z,8.50
2017-12-25T04:34:30.112Z,8.50
2017-12-25T04:36:57.108Z,8.50
2017-12-25T04:39:23.396Z,8.50
2017-12-25T04:41:50.390Z,8.60
2017-12-25T04:44:16.692Z,8.60
2017-12-25T04:46:43.675Z,8.50
2017-12-25T04:49:09.931Z,8.50
2017-12-25T04:51:36.149Z,8.50
2017-12-25T04:54:02.465Z,8.40
2017-12-25T04:56:28.705Z,8.40
2017-12-25T04:58:54.967Z,8.40
2017-12-25T05:01:21.265Z,8.30
2017-12-25T05:03:47.492Z,8.40
2017-12-25T05:06:13.824Z,8.40
2017-12-25T05:08:40.127Z,8.40
2017-12-25T05:11:06.390Z,8.40
2017-12-25T05:13:32.613Z,8.40
2017-12-25T05:15:58.915Z,8.50
2017-12-25T05:18:25.163Z,8.40
2017-12-25T05:20:51.431Z,8.40
2017-12-25T05:23:17.684Z,8.30
2017-12-25T05:25:45.681Z,8.30
2017-12-25T05:28:11.923Z,8.30
2017-12-25T05:30:38.171Z,8.20
2017-12-25T05:33:04.408Z,8.30
2017-12-25T05:35:30.729Z,8.20
2017-12-25T05:37:57.019Z,8.20
2017-12-25T05:40:23.261Z,8.10
2017-12-25T05:42:49.500Z,8.20
2017-12-25T05:45:15.740Z,8.10
2017-12-25T05:47:42.004Z,8.20
2017-12-25T05:50:08.982Z,8.10
2017-12-25T05:52:35.244Z,8.10
2017-12-25T05:55:01.480Z,8.10
2017-12-25T05:57:27.756Z,8.00
2017-12-25T05:59:54.103Z,8.00
2017-12-25T06:02:20.416Z,8.10
2017-12-25T06:04:47.406Z,8.00
2017-12-25T06:07:13.650Z,8.00
2017-12-25T06:09:39.902Z,8.00
2017-12-25T06:12:06.157Z,7.90
2017-12-25T06:14:32.400Z,7.90
2017-12-25T06:16:58.640Z,7.90
2017-12-25T06:19:24.867Z,7.90
2017-12-25T06:21:51.137Z,7.90
2017-12-25T06:24:17.384Z,7.90
2017-12-25T06:26:43.641Z,8.00
2017-12-25T06:29:09.891Z,8.00
2017-12-25T06:31:36.175Z,7.90
2017-12-25T06:34:03.214Z,7.90
2017-12-25T06:36:30.188Z,7.80
2017-12-25T06:38:56.601Z,7.70
2017-12-25T06:41:23.624Z,7.80
2017-12-25T06:43:49.881Z,7.80
2017-12-25T06:46:16.890Z,7.70
2017-12-25T06:48:43.111Z,7.70
2017-12-25T06:51:09.350Z,7.70
2017-12-25T06:53:35.646Z,7.80
2017-12-25T06:56:01.868Z,7.80
2017-12-25T06:58:28.148Z,7.80
2017-12-25T07:00:54.411Z,7.80
2017-12-25T07:03:21.464Z,7.70
2017-12-25T07:05:54.959Z,7.70
2017-12-25T07:08:22.026Z,7.60
2017-12-25T07:10:48.343Z,7.60
2017-12-25T07:13:14.709Z,7.60
2017-12-25T07:15:40.988Z,7.70
2017-12-25T07:18:07.952Z,7.60
2017-12-25T07:20:34.995Z,7.70
2017-12-25T07:23:02.010Z,7.70
2017-12-25T07:25:28.268Z,7.70
2017-12-25T07:27:55.242Z,7.50
2017-12-25T07:30:21.530Z,7.50
2017-12-25T07:32:47.800Z,7.50
2017-12-25T07:35:14.106Z,7.50
2017-12-25T07:37:41.103Z,7.50
2017-12-25T07:40:07.383Z,7.50
2017-12-25T07:42:34.399Z,7.60
2017-12-25T07:45:00.630Z,7.60
2017-12-25T07:47:26.927Z,7.50
2017-12-25T07:49:53.144Z,7.50
2017-12-25T07:52:20.571Z,7.50
2017-12-25T07:54:47.595Z,7.50
2017-12-25T07:57:13.895Z,7.50
2017-12-25T07:59:40.158Z,7.60
2017-12-25T08:02:06.589Z,7.50
2017-12-25T08:04:32.935Z,7.50
2017-12-25T08:06:59.916Z,7.60
2017-12-25T08:09:26.192Z,7.60
2017-12-25T08:11:52.479Z,7.60
2017-12-25T08:14:18.731Z,7.60
2017-12-25T08:16:45.008Z,7.60
2017-12-25T08:19:11.976Z,7.50
2017-12-25T08:21:38.222Z,7.50
2017-12-25T08:24:04.512Z,7.50
2017-12-25T08:26:31.494Z,7.50
2017-12-25T08:28:57.767Z,7.50
2017-12-25T08:31:24.102Z,7.30
2017-12-25T08:33:50.591Z,7.40
2017-12-25T08:36:16.841Z,7.40
2017-12-25T08:38:43.073Z,7.30
2017-12-25T08:41:09.343Z,7.30
2017-12-25T08:43:36.322Z,7.30
2017-12-25T08:46:02.597Z,7.30
2017-12-25T08:48:28.931Z,7.30
2017-12-25T08:50:55.253Z,7.20
2017-12-25T08:53:21.507Z,7.20
2017-12-25T08:55:48.597Z,7.20
2017-12-25T08:58:14.835Z,7.20
2017-12-25T09:00:41.119Z,7.20
2017-12-25T09:03:08.186Z,7.20
2017-12-25T09:05:34.494Z,7.20
2017-12-25T09:08:00.778Z,7.20
2017-12-25T09:10:27.034Z,7.20
2017-12-25T09:12:53.522Z,7.10
2017-12-25T09:15:20.599Z,7.10
2017-12-25T09:17:46.872Z,7.10
2017-12-25T09:20:13.913Z,7.10
2017-12-25T09:22:40.968Z,7.20
2017-12-25T09:25:07.972Z,7.30
2017-12-25T09:27:34.401Z,7.30
2017-12-25T09:30:00.813Z,7.40
2017-12-25T09:32:27.171Z,7.50
2017-12-25T09:34:53.399Z,7.70
2017-12-25T09:37:19.665Z,7.50
2017-12-25T09:39:46.754Z,7.60
2017-12-25T09:42:13.005Z,7.60
2017-12-25T09:44:39.223Z,7.50
2017-12-25T09:47:05.438Z,7.50
2017-12-25T09:49:31.689Z,7.40
2017-12-25T09:51:57.929Z,7.40
2017-12-25T09:54:24.245Z,7.40
2017-12-25T09:56:50.494Z,7.50
2017-12-25T09:59:19.244Z,7.70
2017-12-25T10:01:45.536Z,7.70
2017-12-25T10:04:11.806Z,7.70
2017-12-25T10:06:39.110Z,7.70
2017-12-25T10:09:05.382Z,7.50
2017-12-25T10:11:31.674Z,7.40
2017-12-25T10:13:58.664Z,7.60
2017-12-25T10:16:24.929Z,7.60
2017-12-25T10:18:51.993Z,7.40
2017-12-25T10:21:18.260Z,7.40
2017-12-25T10:23:44.504Z,7.30
2017-12-25T10:26:10.797Z,7.20
2017-12-25T10:28:37.763Z,6.90
2017-12-25T10:31:04.009Z,6.90
2017-12-25T10:33:30.272Z,6.90
2017-12-25T10:35:56.569Z,6.80
2017-12-25T10:38:23.015Z,6.80
2017-12-25T10:40:49.362Z,6.90
2017-12-25T10:43:15.735Z,7.00
2017-12-25T10:45:42.745Z,7.30
2017-12-25T10:48:09.010Z,7.30
2017-12-25T10:50:36.037Z,7.10
2017-12-25T10:53:02.322Z,7.10
2017-12-25T10:55:28.571Z,7.40
2017-12-25T10:57:54.820Z,7.30
2017-12-25T11:00:21.118Z,7.40
2017-12-25T11:02:47.360Z,7.40
2017-12-25T11:05:13.624Z,7.50
2017-12-25T11:07:39.852Z,7.80
2017-12-25T11:10:06.116Z,7.90
2017-12-25T11:12:32.356Z,7.90
2017-12-25T11:14:58.618Z,7.60
2017-12-25T11:17:24.848Z,7.60
2017-12-25T11:19:51.116Z,7.70
2017-12-25T11:22:18.338Z,8.00
2017-12-25T11:24:44.628Z,8.00
2017-12-25T11:27:10.896Z,7.70
2017-12-25T11:29:37.160Z,7.70
2017-12-25T11:32:04.125Z,7.60
2017-12-25T11:34:30.476Z,7.50
2017-12-25T11:36:56.733Z,7.60
2017-12-25T11:39:22.960Z,7.70
2017-12-25T11:41:49.979Z,7.60
2017-12-25T11:44:16.237Z,7.60
2017-12-25T11:46:42.501Z,7.30
2017-12-25T11:49:09.497Z,7.20
2017-12-25T11:51:35.749Z,7.10
2017-12-25T11:54:01.969Z,7.10
2017-12-25T11:56:28.314Z,7.10
2017-12-25T11:58:54.593Z,7.30
2017-12-25T12:01:20.891Z,7.50
2017-12-25T12:03:47.924Z,7.70
2017-12-25T12:06:14.187Z,7.70
2017-12-25T12:08:40.456Z,7.60
2017-12-25T12:11:06.731Z,7.70
2017-12-25T12:13:33.712Z,7.90
2017-12-25T12:16:00.029Z,7.80
2017-12-25T12:18:26.382Z,8.00
2017-12-25T12:20:52.634Z,8.10
2017-12-25T12:23:18.872Z,7.90
2017-12-25T12:25:45.100Z,8.00
2017-12-25T12:28:11.390Z,7.90
2017-12-25T12:30:37.681Z,8.00
2017-12-25T12:33:04.701Z,8.50
2017-12-25T12:35:30.936Z,8.50
2017-12-25T12:37:57.193Z,8.70
2017-12-25T12:40:24.206Z,10.20
2017-12-25T12:42:50.487Z,10.20
2017-12-25T12:45:16.740Z,11.90
2017-12-25T12:47:43.001Z,14.40
2017-12-25T12:50:09.230Z,15.70
2017-12-25T12:52:35.517Z,17.30
2017-12-25T12:55:01.820Z,18.10
2017-12-25T12:57:28.109Z,19.60
2017-12-25T12:59:54.379Z,19.30
2017-12-25T13:02:21.399Z,19.10
2017-12-25T13:04:47.689Z,19.10
2017-12-25T13:07:13.924Z,19.70
2017-12-25T13:09:40.275Z,18.80
2017-12-25T13:12:06.510Z,18.20
2017-12-25T13:14:32.772Z,16.60
2017-12-25T13:16:59.800Z,18.70
2017-12-25T13:19:26.088Z,18.70
2017-12-25T13:21:52.308Z,18.50
2017-12-25T13:24:18.564Z,17.00
2017-12-25T13:26:45.013Z,15.40
2017-12-25T13:29:11.626Z,17.00
2017-12-25T13:31:37.986Z,18.30
2017-12-25T13:34:04.210Z,18.40
2017-12-25T13:36:30.511Z,17.40
2017-12-25T13:38:56.776Z,16.70
2017-12-25T13:41:23.054Z,15.30
2017-12-25T13:43:50.411Z,14.40
2017-12-25T13:46:16.701Z,14.40
2017-12-25T13:48:42.959Z,14.40
2017-12-25T13:51:10.288Z,15.10
2017-12-25T13:53:36.673Z,15.10
2017-12-25T13:56:02.937Z,13.40
2017-12-25T13:58:29.336Z,12.60
2017-12-25T14:00:56.299Z,11.10
2017-12-25T14:03:22.531Z,11.10
2017-12-25T14:05:48.788Z,10.30
2017-12-25T14:08:15.044Z,9.70
2017-12-25T14:10:42.088Z,9.10
2017-12-25T14:13:09.083Z,9.10
2017-12-25T14:15:35.327Z,9.00
2017-12-25T14:18:01.636Z,9.00
2017-12-25T14:20:27.869Z,8.80
2017-12-25T14:22:54.154Z,8.70
2017-12-25T14:25:21.212Z,8.50
2017-12-25T14:27:47.501Z,8.50
2017-12-25T14:30:13.730Z,8.40
2017-12-25T14:32:40.022Z,8.20
2017-12-25T14:35:06.287Z,8.20
2017-12-25T14:37:32.682Z,8.00
2017-12-25T14:39:58.949Z,8.00
2017-12-25T14:42:25.960Z,7.90
2017-12-25T14:44:52.289Z,7.90
2017-12-25T14:47:18.521Z,7.90
2017-12-25T14:49:44.771Z,7.70
2017-12-25T14:52:11.021Z,7.50
2017-12-25T14:54:37.451Z,7.40
2017-12-25T14:57:03.723Z,7.20
2017-12-25T14:59:29.941Z,7.10
2017-12-25T15:01:56.907Z,7.00
2017-12-25T15:04:23.276Z,6.90
2017-12-25T15:06:49.543Z,6.90
2017-12-25T15:09:16.533Z,6.60
2017-12-25T15:11:42.842Z,6.60
2017-12-25T15:14:09.127Z,6.30
2017-12-25T15:16:35.378Z,6.10
2017-12-25T15:19:02.442Z,6.00
2017-12-25T15:21:28.684Z,6.00
2017-12-25T15:23:54.917Z,5.80
2017-12-25T15:26:21.203Z,5.70
2017-12-25T15:28:47.452Z,5.50
2017-12-25T15:31:14.460Z,5.40
2017-12-25T15:33:40.749Z,5.30
2017-12-25T15:36:07.028Z,5.40
2017-12-25T15:38:33.278Z,5.20
2017-12-25T15:41:00.264Z,5.20
2017-12-25T15:43:26.524Z,5.20
2017-12-25T15:45:52.804Z,5.10
2017-12-25T15:48:19.099Z,5.10
2017-12-25T15:50:45.414Z,5.00
2017-12-25T15:53:11.667Z,4.80
2017-12-25T15:55:38.665Z,4.60
2017-12-25T15:58:04.953Z,4.60
2017-12-25T16:00:31.938Z,4.50
2017-12-25T16:02:58.169Z,4.50
2017-12-25T16:05:24.445Z,4.50
2017-12-25T16:07:50.669Z,4.40
2017-12-25T16:10:16.934Z,4.30
2017-12-25T16:12:43.187Z,4.30
2017-12-25T16:15:09.483Z,4.10
2017-12-25T16:17:35.714Z,4.20
2017-12-25T16:20:02.719Z,4.00
2017-12-25T16:22:28.969Z,4.00
2017-12-25T16:24:55.211Z,4.00
2017-12-25T16:27:22.216Z,3.90
2017-12-25T16:29:48.441Z,3.90
2017-12-25T16:32:14.733Z,3.90
2017-12-25T16:34:40.969Z,3.90
2017-12-25T16:37:07.218Z,3.80
2017-12-25T16:39:33.479Z,3.90
2017-12-25T16:41:59.740Z,3.90
2017-12-25T16:44:26.728Z,3.80
2017-12-25T16:46:53.004Z,3.80
2017-12-25T16:49:19.256Z,3.80
2017-12-25T16:51:45.524Z,3.70
2017-12-25T16:54:11.833Z,3.60
2017-12-25T16:56:38.104Z,3.60
2017-12-25T16:59:04.368Z,3.50
2017-12-25T17:01:31.338Z,3.40
2017-12-25T17:03:57.624Z,3.40
2017-12-25T17:06:23.910Z,3.30
2017-12-25T17:08:50.137Z,3.30
2017-12-25T17:11:16.401Z,3.30
2017-12-25T17:13:42.677Z,3.30
2017-12-25T17:16:09.810Z,3.20
2017-12-25T17:18:36.864Z,3.20
2017-12-25T17:21:03.875Z,3.10
2017-12-25T17:23:30.133Z,3.20
2017-12-25T17:25:57.141Z,3.00
2017-12-25T17:28:24.308Z,3.00
2017-12-25T17:30:50.536Z,2.90
2017-12-25T17:33:16.785Z,2.90
2017-12-25T17:35:43.763Z,2.80
2017-12-25T17:38:10.026Z,2.80
2017-12-25T17:40:36.266Z,2.70
2017-12-25T17:43:02.548Z,2.70
2017-12-25T17:45:28.795Z,2.70
2017-12-25T17:47:55.092Z,2.70
2017-12-25T17:50:21.368Z,2.60
2017-12-25T17:52:47.712Z,2.60
2017-12-25T17:55:13.948Z,2.50
2017-12-25T17:57:40.176Z,2.50
2017-12-25T18:00:06.441Z,2.40
2017-12-25T18:02:33.432Z,2.50
2017-12-25T18:04:59.759Z,2.50
2017-12-25T18:07:26.058Z,2.40
2017-12-25T18:09:52.420Z,2.50
2017-12-25T18:12:18.681Z,2.40
2017-12-25T18:14:44.948Z,2.40
2017-12-25T18:17:11.226Z,2.40
2017-12-25T18:19:37.468Z,2.40
2017-12-25T18:22:03.737Z,2.40
2017-12-25T18:24:30.025Z,2.20
2017-12-25T18:26:56.280Z,2.30
2017-12-25T18:29:23.361Z,2.20
2017-12-25T18:31:49.701Z,2.10
2017-12-25T18:34:16.013Z,2.10
2017-12-25T18:36:42.281Z,2.10
2017-12-25T18:39:08.627Z,2.00
2017-12-25T18:41:34.925Z,1.90
2017-12-25T18:44:01.187Z,1.90
2017-12-25T18:46:28.506Z,1.90
2017-12-25T18:48:54.775Z,1.90
2017-12-25T18:51:21.052Z,1.90
2017-12-25T18:53:47.292Z,1.90
2017-12-25T18:56:13.632Z,1.90
2017-12-25T18:58:39.900Z,2.00
2017-12-25T19:01:06.190Z,2.00
2017-12-25T19:03:32.438Z,1.90
2017-12-25T19:05:58.680Z,1.90
2017-12-25T19:08:24.982Z,1.90
2017-12-25T19:10:51.224Z,1.90
2017-12-25T19:13:17.492Z,1.80
2017-12-25T19:15:44.492Z,1.70
2017-12-25T19:18:10.782Z,1.70
2017-12-25T19:20:37.082Z,1.60
2017-12-25T19:23:03.378Z,1.60
2017-12-25T19:25:29.694Z,1.50
2017-12-25T19:27:55.952Z,1.40
2017-12-25T19:30:22.274Z,1.50
2017-12-25T19:32:48.523Z,1.40
2017-12-25T19:35:14.851Z,1.50
2017-12-25T19:37:41.101Z,1.50
2017-12-25T19:40:07.410Z,1.50
2017-12-25T19:42:33.645Z,1.60
2017-12-25T19:44:59.873Z,1.60
2017-12-25T19:47:26.165Z,1.60
2017-12-25T19:49:52.408Z,1.50
2017-12-25T19:52:18.665Z,1.50
2017-12-25T19:54:44.914Z,1.50
2017-12-25T19:57:11.957Z,1.50
2017-12-25T19:59:38.962Z,1.40
2017-12-25T20:02:05.259Z,1.40
2017-12-25T20:04:31.552Z,1.40
2017-12-25T20:06:57.830Z,1.30
2017-12-25T20:09:24.078Z,1.30
2017-12-25T20:11:50.404Z,1.30
2017-12-25T20:14:16.631Z,1.30
2017-12-25T20:16:42.857Z,1.30
2017-12-25T20:19:09.138Z,1.30
2017-12-25T20:21:35.399Z,1.30
2017-12-25T20:24:01.702Z,1.20
2017-12-25T20:26:27.956Z,1.20
2017-12-25T20:28:54.232Z,1.20
2017-12-25T20:31:20.495Z,1.20
2017-12-25T20:33:47.534Z,1.20
2017-12-25T20:36:13.794Z,1.20
2017-12-25T20:38:40.046Z,1.20
2017-12-25T20:41:06.370Z,1.10
2017-12-25T20:43:32.621Z,1.10
2017-12-25T20:45:58.881Z,1.10
2017-12-25T20:48:25.108Z,1.10
2017-12-25T20:50:51.460Z,1.10
2017-12-25T20:53:18.456Z,1.30
2017-12-25T20:55:44.778Z,1.30
2017-12-25T20:58:11.037Z,1.30
2017-12-25T21:00:37.293Z,1.30
2017-12-25T21:03:04.325Z,1.40
2017-12-25T21:05:30.585Z,1.40
2017-12-25T21:07:56.837Z,1.50
2017-12-25T21:10:23.154Z,1.50
2017-12-25T21:12:49.409Z,1.50
2017-12-25T21:15:15.687Z,1.50
2017-12-25T21:17:42.734Z,1.70
2017-12-25T21:20:09.727Z,1.70
2017-12-25T21:22:35.955Z,1.60
2017-12-25T21:25:02.299Z,1.60
2017-12-25T21:27:28.540Z,1.70
2017-12-25T21:29:54.837Z,1.60
2017-12-25T21:32:21.075Z,1.60
2017-12-25T21:34:47.432Z,1.60
2017-12-25T21:37:13.688Z,1.70
2017-12-25T21:39:39.956Z,1.50
2017-12-25T21:42:06.196Z,1.50
2017-12-25T21:44:32.448Z,1.40
2017-12-25T21:46:58.685Z,1.50
2017-12-25T21:49:24.956Z,1.40
2017-12-25T21:51:51.204Z,1.40
2017-12-25T21:54:17.489Z,1.40
2017-12-25T21:56:43.776Z,1.40
2017-12-25T21:59:10.022Z,1.40
2017-12-25T22:01:36.292Z,1.30
2017-12-25T22:04:03.305Z,1.30
2017-12-25T22:06:29.517Z,1.30
2017-12-25T22:08:55.744Z,1.20
2017-12-25T22:11:22.025Z,1.30
2017-12-25T22:13:48.993Z,1.40
2017-12-25T22:16:15.232Z,1.40
2017-12-25T22:18:41.519Z,1.40
2017-12-25T22:21:07.756Z,1.40
2017-12-25T22:23:34.802Z,1.50
2017-12-25T22:26:01.032Z,1.50
2017-12-25T22:28:28.173Z,1.50
2017-12-25T22:30:54.405Z,1.50
2017-12-25T22:33:20.679Z,1.50
2017-12-25T22:35:46.967Z,1.60
2017-12-25T22:38:13.233Z,1.70
2017-12-25T22:40:39.485Z,1.70
2017-12-25T22:43:05.728Z,1.70
2017-12-25T22:45:31.966Z,1.70
2017-12-25T22:47:59.204Z,1.80
2017-12-25T22:50:25.480Z,1.80
2017-12-25T22:52:52.476Z,1.80
2017-12-25T22:55:18.730Z,1.80
2017-12-25T22:57:44.964Z,1.80
2017-12-25T23:00:11.234Z,1.80
2017-12-25T23:02:37.469Z,1.80
2017-12-25T23:05:03.742Z,1.90
2017-12-25T23:07:30.015Z,1.90
2017-12-25T23:09:56.345Z,1.90
2017-12-25T23:12:22.641Z,1.90
2017-12-25T23:14:48.877Z,2.00
2017-12-25T23:17:15.163Z,2.00
2017-12-25T23:19:41.435Z,2.00
2017-12-25T23:22:07.695Z,2.00
2017-12-25T23:24:33.987Z,2.10
2017-12-25T23:27:00.236Z,2.10
2017-12-25T23:29:32.157Z,2.00
2017-12-25T23:31:58.436Z,2.00
2017-12-25T23:34:25.438Z,2.00
2017-12-25T23:36:51.701Z,2.00
2017-12-25T23:39:18.698Z,2.00
2017-12-25T23:41:44.967Z,2.00
2017-12-25T23:44:11.216Z,2.00
2017-12-25T23:46:38.245Z,2.30
2017-12-25T23:49:04.494Z,2.20
2017-12-25T23:51:31.541Z,2.30
2017-12-25T23:53:58.556Z,2.30
2017-12-25T23:56:24.805Z,2.30
2017-12-25T23:58:51.127Z,2.30
